Time;durP1;ratioP1;P1;durP2;ratioP2;P2;SDS_P1;SDS_P2;PMS_P1;PMS_P2;Temp;Humidity;BMP_temperature;BMP_pressure;BME280_temperature;BME280_humidity;BME280_pressure;Samples;Min_cycle;Max_cycle;Signal;HPM_P1;HPM_P2
2022/05/24 00:00:26;;;;;;;15.83;8.90;;;;;16.90;99595.00;;;;5022025;28;20722;-68
2022/05/24 00:03:12;;;;;;;15.33;8.93;;;;;16.80;99577.00;;;;5017867;28;20244;-69
2022/05/24 00:05:59;;;;;;;14.43;8.50;;;;;16.90;99590.00;;;;5026232;28;20393;-67
2022/05/24 00:08:45;;;;;;;16.03;9.23;;;;;16.90;99592.00;;;;5014354;28;20626;-67
2022/05/24 00:11:31;;;;;;;14.77;8.43;;;;;16.90;99596.00;;;;5017430;28;20328;-68
2022/05/24 00:15:19;;;;;;;13.73;8.70;;;;;16.80;99604.00;;;;5020155;28;20246;-67
2022/05/24 00:17:27;;;;;;;14.63;8.97;;;;;16.80;99602.00;;;;5020415;28;20236;-68
2022/05/24 00:20:13;;;;;;;14.43;8.27;;;;;16.80;99604.00;;;;5012507;28;20728;-68
2022/05/24 00:23:00;;;;;;;15.23;8.13;;;;;16.80;99587.00;;;;5012700;28;20229;-68
2022/05/24 00:25:48;;;;;;;14.10;7.87;;;;;16.80;99602.00;;;;5016962;28;21014;-67
2022/05/24 00:28:36;;;;;;;13.00;7.47;;;;;16.80;99581.00;;;;5027083;28;20233;-66
2022/05/24 00:31:23;;;;;;;10.97;7.07;;;;;16.80;99605.00;;;;5027421;28;20240;-66
2022/05/24 00:34:09;;;;;;;11.50;7.53;;;;;16.70;99602.00;;;;5026759;28;20775;-67
2022/05/24 00:36:55;;;;;;;11.50;7.77;;;;;16.70;99584.00;;;;5021667;28;20283;-67
2022/05/24 00:39:48;;;;;;;11.10;7.40;;;;;16.80;99587.00;;;;5016067;28;20233;-66
2022/05/24 00:42:34;;;;;;;10.90;7.00;;;;;16.70;99593.00;;;;5026216;28;20968;-67
2022/05/24 00:45:25;;;;;;;12.83;7.37;;;;;16.80;99602.00;;;;5018773;28;20272;-67
2022/05/24 00:48:22;;;;;;;13.47;7.77;;;;;16.70;99591.00;;;;5017128;28;20241;-66
2022/05/24 00:51:10;;;;;;;11.73;7.07;;;;;16.70;99587.00;;;;5002749;28;20821;-66
2022/05/24 00:53:57;;;;;;;10.87;6.97;;;;;16.60;99591.00;;;;5001329;28;20233;-67
2022/05/24 00:56:57;;;;;;;15.43;8.00;;;;;16.70;99583.00;;;;5018260;28;20239;-68
2022/05/24 00:59:49;;;;;;;12.97;7.67;;;;;16.60;99578.00;;;;5004540;28;20253;-69
2022/05/24 01:02:36;;;;;;;14.00;7.47;;;;;16.70;99571.00;;;;4996338;28;20240;-68
2022/05/24 01:05:26;;;;;;;13.83;7.90;;;;;16.70;99571.00;;;;5006501;28;20334;-67
2022/05/24 01:08:13;;;;;;;14.17;8.50;;;;;16.60;99567.00;;;;5023709;28;20231;-68
2022/05/24 01:11:01;;;;;;;19.57;9.53;;;;;16.70;99566.00;;;;5016448;28;20224;-68
2022/05/24 01:13:47;;;;;;;15.63;9.07;;;;;16.70;99575.00;;;;5019927;28;20302;-68
2022/05/24 01:16:34;;;;;;;16.17;9.57;;;;;16.70;99570.00;;;;5010739;28;20238;-66
2022/05/24 01:19:30;;;;;;;16.17;9.43;;;;;16.70;99553.00;;;;5016576;28;20230;-67
2022/05/24 01:22:34;;;;;;;16.73;9.80;;;;;16.60;99551.00;;;;5025364;28;20245;-68
2022/05/24 01:25:26;;;;;;;17.37;9.37;;;;;16.60;99545.00;;;;5022697;28;20231;-67
2022/05/24 01:28:17;;;;;;;16.60;9.13;;;;;16.60;99556.00;;;;5026187;28;20229;-67
2022/05/24 01:31:04;;;;;;;15.33;9.03;;;;;16.60;99570.00;;;;5021324;28;20234;-67
2022/05/24 01:37:00;;;;;;;17.60;10.27;;;;;16.60;99557.00;;;;4987039;28;20287;-67
2022/05/24 01:39:49;;;;;;;20.93;10.67;;;;;16.60;99562.00;;;;5018385;28;20232;-67
2022/05/24 01:42:35;;;;;;;22.60;11.37;;;;;16.60;99566.00;;;;5019948;28;20365;-66
2022/05/24 01:45:27;;;;;;;20.90;10.37;;;;;16.60;99572.00;;;;5014095;28;20292;-68
2022/05/24 01:48:18;;;;;;;19.33;10.50;;;;;16.60;99550.00;;;;5021985;28;20219;-67
2022/05/24 01:51:07;;;;;;;22.00;11.63;;;;;16.60;99541.00;;;;5022628;28;20635;-68
2022/05/24 01:53:56;;;;;;;18.63;10.03;;;;;16.60;99567.00;;;;5015403;28;20244;-68
2022/05/24 01:56:57;;;;;;;16.40;10.17;;;;;16.60;99562.00;;;;5019041;28;20306;-68
2022/05/24 01:59:48;;;;;;;19.90;10.83;;;;;16.60;99571.00;;;;5020106;28;20232;-68
2022/05/24 02:02:36;;;;;;;18.70;10.27;;;;;16.50;99563.00;;;;5019257;28;20426;-68
2022/05/24 02:05:31;;;;;;;18.40;10.87;;;;;16.50;99554.00;;;;5025014;28;20243;-68
2022/05/24 02:08:17;;;;;;;19.27;10.63;;;;;16.60;99545.00;;;;5021012;28;20610;-68
2022/05/24 02:11:05;;;;;;;17.27;10.70;;;;;16.50;99549.00;;;;5021036;28;20234;-68
2022/05/24 02:13:53;;;;;;;18.70;10.47;;;;;16.60;99549.00;;;;5020625;28;20231;-67
2022/05/24 02:16:47;;;;;;;18.90;9.80;;;;;16.40;99537.00;;;;5024707;28;20247;-68
2022/05/24 02:19:38;;;;;;;16.23;10.27;;;;;16.50;99551.00;;;;5023542;28;20236;-68
2022/05/24 02:22:28;;;;;;;18.23;10.87;;;;;16.50;99545.00;;;;5025172;28;20233;-68
2022/05/24 02:25:20;;;;;;;16.87;9.97;;;;;16.40;99550.00;;;;5025032;28;20282;-68
2022/05/24 02:28:09;;;;;;;16.20;9.93;;;;;16.40;99545.00;;;;5019843;28;20285;-68
2022/05/24 02:30:58;;;;;;;19.20;10.33;;;;;16.30;99554.00;;;;5018528;28;20229;-69
2022/05/24 02:33:45;;;;;;;19.30;10.07;;;;;16.30;99537.00;;;;5022506;28;20232;-66
2022/05/24 02:36:32;;;;;;;16.27;9.93;;;;;16.30;99536.00;;;;5024422;28;20248;-68
2022/05/24 02:39:20;;;;;;;16.87;9.43;;;;;16.30;99545.00;;;;5025324;28;20249;-68
2022/05/24 02:42:05;;;;;;;16.60;9.33;;;;;16.30;99547.00;;;;5024940;28;20228;-69
2022/05/24 02:44:51;;;;;;;15.87;9.60;;;;;16.30;99557.00;;;;5018149;28;20233;-67
2022/05/24 02:47:37;;;;;;;17.90;9.57;;;;;16.30;99554.00;;;;5015025;28;20297;-65
2022/05/24 02:50:24;;;;;;;19.17;10.23;;;;;16.40;99556.00;;;;5024841;28;20241;-69
2022/05/24 02:53:12;;;;;;;18.23;9.93;;;;;16.30;99562.00;;;;5024867;28;20239;-66
2022/05/24 02:56:02;;;;;;;18.33;10.20;;;;;16.40;99566.00;;;;5019008;28;20351;-68
2022/05/24 02:58:48;;;;;;;20.07;10.33;;;;;16.30;99568.00;;;;5016480;28;20326;-69
2022/05/24 03:01:34;;;;;;;21.97;9.93;;;;;16.30;99571.00;;;;5021186;28;20237;-67
2022/05/24 03:04:21;;;;;;;19.20;9.53;;;;;16.30;99569.00;;;;5019498;28;20343;-68
2022/05/24 03:10:12;;;;;;;18.13;8.87;;;;;16.40;99564.00;;;;5019631;28;20242;-66
2022/05/24 03:16:09;;;;;;;16.63;9.20;;;;;16.20;99571.00;;;;5018488;28;20234;-68
2022/05/24 03:18:55;;;;;;;15.80;8.93;;;;;16.20;99570.00;;;;5017903;28;20222;-67
2022/05/24 03:21:43;;;;;;;16.43;9.20;;;;;16.20;99565.00;;;;5024442;28;20905;-66
2022/05/24 03:24:29;;;;;;;15.93;8.97;;;;;16.20;99569.00;;;;5024610;28;20235;-67
2022/05/24 03:27:16;;;;;;;14.77;9.00;;;;;16.20;99557.00;;;;5024881;28;20258;-67
2022/05/24 03:30:04;;;;;;;15.07;8.73;;;;;16.10;99549.00;;;;5025045;28;20310;-69
2022/05/24 03:32:50;;;;;;;17.27;8.57;;;;;16.20;99549.00;;;;5024942;28;20289;-67
2022/05/24 03:35:36;;;;;;;14.17;8.23;;;;;16.10;99551.00;;;;5028121;28;20293;-67
2022/05/24 03:38:23;;;;;;;15.13;7.80;;;;;16.10;99564.00;;;;5028299;28;20250;-67
2022/05/24 03:41:09;;;;;;;13.20;7.90;;;;;16.10;99571.00;;;;5022690;28;20822;-65
2022/05/24 03:43:56;;;;;;;11.77;7.47;;;;;16.00;99572.00;;;;5020842;28;20235;-67
2022/05/24 03:46:42;;;;;;;14.93;7.57;;;;;15.80;99569.00;;;;5027802;28;20242;-67
2022/05/24 03:49:28;;;;;;;12.03;6.30;;;;;15.80;99556.00;;;;5007979;28;20611;-67
2022/05/24 03:52:15;;;;;;;15.07;7.47;;;;;15.80;99575.00;;;;5008014;28;20238;-67
2022/05/24 03:55:01;;;;;;;10.00;6.60;;;;;15.70;99573.00;;;;5001789;28;20241;-67
2022/05/24 03:58:03;;;;;;;11.10;5.77;;;;;15.70;99568.00;;;;5027418;28;20239;-66
2022/05/24 04:00:51;;;;;;;11.03;6.03;;;;;15.60;99572.00;;;;5028016;28;20227;-67
2022/05/24 04:03:37;;;;;;;8.77;5.53;;;;;15.70;99562.00;;;;5027009;28;20238;-65
2022/05/24 04:06:24;;;;;;;12.37;6.07;;;;;15.70;99576.00;;;;5027711;28;20245;-67
2022/05/24 04:09:10;;;;;;;7.77;5.33;;;;;15.70;99579.00;;;;5008091;28;20236;-67
2022/05/24 04:11:57;;;;;;;8.93;5.10;;;;;15.60;99599.00;;;;5001304;28;20280;-68
2022/05/24 04:14:43;;;;;;;8.50;5.53;;;;;15.60;99592.00;;;;5025270;28;20237;-67
2022/05/24 04:17:31;;;;;;;10.40;5.50;;;;;15.50;99597.00;;;;5007654;28;20283;-66
2022/05/24 04:20:17;;;;;;;10.53;5.20;;;;;15.40;99609.00;;;;5027371;28;20233;-65
2022/05/24 04:23:04;;;;;;;7.67;4.97;;;;;15.40;99614.00;;;;5023116;28;20306;-67
2022/05/24 04:25:50;;;;;;;7.27;4.80;;;;;15.30;99609.00;;;;5027366;28;20370;-67
2022/05/24 04:28:37;;;;;;;6.80;4.70;;;;;15.40;99617.00;;;;5027114;28;20260;-68
2022/05/24 04:31:23;;;;;;;7.77;5.13;;;;;15.50;99618.00;;;;5027734;28;20274;-67
2022/05/24 04:34:11;;;;;;;7.77;4.80;;;;;15.50;99619.00;;;;5027093;28;20237;-67
2022/05/24 04:36:57;;;;;;;6.43;4.43;;;;;15.50;99626.00;;;;5018907;28;20324;-69
2022/05/24 04:39:48;;;;;;;6.57;4.20;;;;;15.50;99626.00;;;;5025844;28;20234;-66
2022/05/24 04:42:34;;;;;;;6.83;4.53;;;;;15.60;99630.00;;;;5026853;28;20237;-68
2022/05/24 04:45:21;;;;;;;8.87;4.13;;;;;15.60;99646.00;;;;5018580;28;20294;-68
2022/05/24 04:48:07;;;;;;;8.93;3.87;;;;;15.60;99645.00;;;;5021862;28;20238;-68
2022/05/24 04:50:56;;;;;;;5.43;3.60;;;;;15.60;99652.00;;;;5017321;28;20234;-67
2022/05/24 04:53:43;;;;;;;5.00;3.27;;;;;15.70;99628.00;;;;5019020;28;20271;-66
2022/05/24 04:56:29;;;;;;;5.80;3.87;;;;;15.80;99646.00;;;;5010776;28;20887;-67
2022/05/24 04:59:16;;;;;;;4.50;3.53;;;;;15.80;99642.00;;;;5021629;28;20787;-67
2022/05/24 05:02:03;;;;;;;7.40;3.83;;;;;15.90;99632.00;;;;5025830;28;20237;-67
2022/05/24 05:04:50;;;;;;;5.67;3.73;;;;;15.90;99638.00;;;;5026514;28;20249;-68
2022/05/24 05:07:38;;;;;;;5.30;3.47;;;;;16.10;99652.00;;;;5025774;28;20338;-67
2022/05/24 05:10:25;;;;;;;5.23;3.50;;;;;15.90;99652.00;;;;5022439;28;20238;-69
2022/05/24 05:13:12;;;;;;;5.33;3.40;;;;;15.80;99647.00;;;;5020276;28;20357;-68
2022/05/24 05:15:58;;;;;;;7.13;3.80;;;;;15.80;99637.00;;;;5016046;28;20234;-68
2022/05/24 05:18:45;;;;;;;5.50;3.63;;;;;15.90;99640.00;;;;5022079;28;20242;-68
2022/05/24 05:21:34;;;;;;;10.03;4.27;;;;;15.90;99647.00;;;;5027071;28;20233;-67
2022/05/24 05:24:22;;;;;;;7.20;4.33;;;;;15.90;99645.00;;;;5026243;28;20743;-68
2022/05/24 05:27:08;;;;;;;6.20;3.57;;;;;15.90;99650.00;;;;5020002;28;20237;-71
2022/05/24 05:32:58;;;;;;;9.73;3.40;;;;;15.80;99636.00;;;;5006174;28;20247;-70
2022/05/24 05:35:45;;;;;;;9.17;3.97;;;;;15.80;99630.00;;;;5005469;28;20314;-71
2022/05/24 05:38:32;;;;;;;8.30;3.87;;;;;15.90;99640.00;;;;5006704;28;20245;-70
2022/05/24 05:41:21;;;;;;;6.20;3.13;;;;;16.00;99661.00;;;;5025236;28;20270;-71
2022/05/24 05:44:08;;;;;;;5.87;3.27;;;;;16.10;99691.00;;;;4999733;28;20354;-70
2022/05/24 05:46:54;;;;;;;7.07;4.00;;;;;16.00;99695.00;;;;5006629;28;20235;-70
2022/05/24 05:49:41;;;;;;;5.73;3.73;;;;;15.90;99706.00;;;;5026143;28;20615;-71
2022/05/24 05:52:27;;;;;;;5.87;3.43;;;;;15.80;99710.00;;;;5020536;28;21061;-70
2022/05/24 05:55:13;;;;;;;4.23;3.03;;;;;15.90;99724.00;;;;5022608;28;20231;-70
2022/05/24 05:58:01;;;;;;;5.50;2.90;;;;;15.80;99719.00;;;;5017723;28;20259;-72
2022/05/24 06:00:48;;;;;;;6.10;3.10;;;;;15.80;99717.00;;;;5025953;28;20736;-67
2022/05/24 06:03:34;;;;;;;8.17;3.47;;;;;15.80;99747.00;;;;5017328;28;20241;-68
2022/05/24 06:06:23;;;;;;;5.13;3.50;;;;;15.70;99747.00;;;;5026190;28;20298;-68
2022/05/24 06:09:10;;;;;;;7.33;3.20;;;;;15.80;99742.00;;;;5010019;28;20227;-67
2022/05/24 06:11:56;;;;;;;5.73;3.13;;;;;15.70;99750.00;;;;5000303;28;20313;-69
2022/05/24 06:14:43;;;;;;;5.73;3.00;;;;;15.70;99753.00;;;;5020587;28;20280;-69
2022/05/24 06:17:48;;;;;;;4.70;2.70;;;;;15.60;99756.00;;;;5018883;28;20253;-70
2022/05/24 06:20:34;;;;;;;4.67;2.80;;;;;15.40;99757.00;;;;5020028;28;20237;-69
2022/05/24 06:23:20;;;;;;;5.80;2.87;;;;;15.50;99752.00;;;;5016964;28;20873;-69
2022/05/24 06:26:07;;;;;;;5.83;3.13;;;;;15.50;99764.00;;;;5013065;28;20233;-69
2022/05/24 06:28:53;;;;;;;6.90;3.27;;;;;15.50;99762.00;;;;5014569;28;20285;-68
2022/05/24 06:31:42;;;;;;;6.87;3.10;;;;;15.40;99772.00;;;;5016717;28;20371;-66
2022/05/24 06:34:29;;;;;;;3.93;2.83;;;;;15.40;99772.00;;;;5016194;28;20361;-67
2022/05/24 06:37:16;;;;;;;4.60;3.10;;;;;15.40;99786.00;;;;5019119;28;20229;-68
2022/05/24 06:40:03;;;;;;;6.13;3.00;;;;;15.40;99789.00;;;;5012498;28;20790;-70
2022/05/24 06:42:49;;;;;;;4.90;3.03;;;;;15.40;99790.00;;;;5020769;28;20276;-67
2022/05/24 06:45:35;;;;;;;4.87;2.60;;;;;15.40;99788.00;;;;5019511;28;20280;-68
2022/05/24 06:48:22;;;;;;;2.90;2.50;;;;;15.50;99800.00;;;;5014518;28;20769;-69
2022/05/24 06:51:11;;;;;;;7.83;3.10;;;;;15.40;99798.00;;;;5009161;28;20229;-68
2022/05/24 06:53:57;;;;;;;6.17;2.50;;;;;15.50;99795.00;;;;5006001;28;20226;-67
2022/05/24 06:56:43;;;;;;;5.33;2.70;;;;;15.40;99809.00;;;;5008939;28;20225;-67
2022/05/24 07:02:34;;;;;;;2.27;1.80;;;;;15.30;99809.00;;;;5009927;28;20946;-67
2022/05/24 07:05:22;;;;;;;5.20;2.30;;;;;15.30;99807.00;;;;5000482;28;20223;-65
2022/05/24 07:08:09;;;;;;;2.20;2.00;;;;;15.20;99824.00;;;;4990309;28;20793;-67
2022/05/24 07:10:55;;;;;;;2.80;1.90;;;;;15.20;99826.00;;;;4999617;28;20225;-66
2022/05/24 07:13:42;;;;;;;4.67;2.10;;;;;15.10;99830.00;;;;5020377;28;20253;-66
2022/05/24 07:16:28;;;;;;;2.77;1.90;;;;;15.10;99835.00;;;;5022088;28;20318;-67
2022/05/24 07:19:14;;;;;;;4.90;1.80;;;;;15.20;99824.00;;;;5022574;28;20233;-65
2022/05/24 07:22:02;;;;;;;5.37;2.37;;;;;15.10;99830.00;;;;5029066;28;20226;-67
2022/05/24 07:24:49;;;;;;;4.47;1.93;;;;;15.30;99826.00;;;;5028319;28;20239;-67
2022/05/24 07:27:36;;;;;;;5.07;2.33;;;;;15.30;99829.00;;;;5028980;28;20237;-67
2022/05/24 07:30:23;;;;;;;2.80;2.10;;;;;15.30;99827.00;;;;5010171;28;20235;-67
2022/05/24 07:33:10;;;;;;;6.13;2.63;;;;;15.40;99824.00;;;;5001895;28;20284;-65
2022/05/24 07:35:56;;;;;;;4.20;2.50;;;;;15.70;99834.00;;;;5028436;28;20311;-67
2022/05/24 07:38:44;;;;;;;5.13;2.70;;;;;15.80;99823.00;;;;5028769;28;20245;-66
2022/05/24 07:47:57;;;;;;;5.63;2.80;;;;;15.70;99809.00;;;;5003803;28;20247;-68
2022/05/24 07:50:44;;;;;;;4.97;2.40;;;;;15.60;99845.00;;;;5023619;28;20338;-67
2022/05/24 07:53:30;;;;;;;5.73;2.67;;;;;15.70;99844.00;;;;5021441;28;20718;-66
2022/05/24 07:56:19;;;;;;;6.23;2.40;;;;;15.80;99856.00;;;;5022062;28;20368;-66
2022/05/24 07:59:05;;;;;;;5.27;2.60;;;;;15.70;99840.00;;;;5028166;28;20755;-67
2022/05/24 08:01:52;;;;;;;6.90;2.70;;;;;15.80;99852.00;;;;5033005;28;20308;-66
2022/05/24 08:04:39;;;;;;;4.87;2.47;;;;;16.10;99857.00;;;;5027127;28;20296;-66
2022/05/24 08:07:25;;;;;;;6.90;2.50;;;;;16.20;99857.00;;;;5010309;28;20826;-66
2022/05/24 08:10:12;;;;;;;4.90;2.77;;;;;16.60;99855.00;;;;5001106;28;20235;-65
2022/05/24 08:13:06;;;;;;;5.47;3.00;;;;;16.50;99871.00;;;;5008421;28;20234;-67
2022/05/24 08:15:53;;;;;;;5.57;3.00;;;;;16.70;99873.00;;;;5026867;28;20657;-67
2022/05/24 08:18:40;;;;;;;5.67;3.33;;;;;16.60;99860.00;;;;5007482;28;20231;-66
2022/05/24 08:21:26;;;;;;;7.67;3.17;;;;;16.70;99882.00;;;;5008041;28;20617;-68
2022/05/24 08:24:12;;;;;;;5.10;3.37;;;;;16.80;99875.00;;;;5020662;28;21037;-67
2022/05/24 08:26:59;;;;;;;4.20;2.77;;;;;16.90;99867.00;;;;5027985;28;20616;-67
2022/05/24 08:29:46;;;;;;;4.83;3.20;;;;;16.90;99870.00;;;;5027613;28;20317;-66
2022/05/24 08:32:33;;;;;;;4.37;3.13;;;;;17.20;99880.00;;;;5028099;28;20235;-68
2022/05/24 08:35:21;;;;;;;3.87;2.97;;;;;17.10;99886.00;;;;5021650;28;20865;-67
2022/05/24 08:38:07;;;;;;;4.67;3.03;;;;;17.10;99874.00;;;;5019601;28;20668;-66
2022/05/24 08:41:00;;;;;;;4.97;2.77;;;;;17.40;99879.00;;;;5027242;28;20342;-67
2022/05/24 08:50:30;;;;;;;4.87;2.97;;;;;17.50;99874.00;;;;5007736;28;20346;-68
2022/05/24 08:53:26;;;;;;;4.93;2.50;;;;;17.80;99883.00;;;;4998850;28;20314;-68
2022/05/24 08:56:16;;;;;;;2.20;2.00;;;;;18.10;99863.00;;;;5019837;28;20231;-67
2022/05/24 08:59:07;;;;;;;2.57;2.20;;;;;17.90;99880.00;;;;5027141;28;20707;-68
2022/05/24 09:01:54;;;;;;;4.27;2.30;;;;;17.30;99891.00;;;;5027082;28;20234;-68
2022/05/24 09:04:42;;;;;;;2.90;2.10;;;;;17.10;99892.00;;;;5026932;28;20239;-68
2022/05/24 09:07:38;;;;;;;2.57;2.17;;;;;17.20;99891.00;;;;5011546;28;20388;-67
2022/05/24 09:10:29;;;;;;;3.77;2.30;;;;;17.80;99890.00;;;;5001737;28;20304;-67
2022/05/24 09:13:29;;;;;;;4.27;2.57;;;;;18.10;99909.00;;;;5020060;28;20233;-66
2022/05/24 09:16:17;;;;;;;3.53;1.87;;;;;17.90;99912.00;;;;4999991;28;20234;-67
2022/05/24 09:19:08;;;;;;;3.63;1.60;;;;;17.50;99925.00;;;;5022834;28;20649;-69
2022/05/24 09:21:56;;;;;;;2.13;1.80;;;;;17.40;99921.00;;;;5020859;28;20229;-71
2022/05/24 09:24:45;;;;;;;1.50;1.40;;;;;17.40;99937.00;;;;5017774;28;20245;-71
2022/05/24 09:27:49;;;;;;;2.20;1.70;;;;;17.50;99936.00;;;;5016359;28;20254;-68
2022/05/24 09:30:43;;;;;;;1.83;1.30;;;;;17.60;99944.00;;;;5022057;28;20309;-71
2022/05/24 09:33:31;;;;;;;2.33;1.47;;;;;18.00;99945.00;;;;5002909;28;20632;-67
2022/05/24 09:36:31;;;;;;;1.87;1.50;;;;;18.40;99944.00;;;;4999855;28;20229;-69
2022/05/24 09:39:25;;;;;;;1.40;1.30;;;;;18.90;99946.00;;;;5001731;28;20236;-70
2022/05/24 09:42:14;;;;;;;1.83;1.50;;;;;19.00;99939.00;;;;5007935;28;20225;-70
2022/05/24 09:45:15;;;;;;;2.57;1.20;;;;;18.80;99951.00;;;;4993461;28;20377;-70
2022/05/24 09:48:01;;;;;;;2.50;1.40;;;;;18.60;99942.00;;;;4999497;28;20242;-71
2022/05/24 09:50:51;;;;;;;2.57;1.23;;;;;18.50;99963.00;;;;5024274;28;20233;-70
2022/05/24 09:53:48;;;;;;;2.63;1.27;;;;;18.30;99956.00;;;;5001922;28;20649;-67
2022/05/24 09:56:36;;;;;;;0.87;0.83;;;;;18.10;99970.00;;;;5000022;28;20242;-68
2022/05/24 09:59:24;;;;;;;1.40;1.10;;;;;18.00;99974.00;;;;5000158;28;20735;-68
2022/05/24 10:02:24;;;;;;;1.07;1.03;;;;;17.80;99980.00;;;;4994096;28;20308;-67
2022/05/24 10:05:18;;;;;;;2.00;1.00;;;;;17.70;99976.00;;;;4992829;28;20234;-69
2022/05/24 10:08:13;;;;;;;1.30;1.20;;;;;17.40;99983.00;;;;4993399;28;20515;-68
2022/05/24 10:11:10;;;;;;;1.77;1.23;;;;;17.50;99984.00;;;;5000837;28;20365;-68
2022/05/24 10:14:11;;;;;;;1.93;1.30;;;;;17.50;99979.00;;;;5020479;28;20357;-67
2022/05/24 10:17:03;;;;;;;3.77;1.20;;;;;17.60;99982.00;;;;5004430;28;20727;-69
2022/05/24 10:19:59;;;;;;;2.13;1.30;;;;;17.70;100000.00;;;;5006145;28;20237;-68
2022/05/24 10:22:52;;;;;;;1.53;1.10;;;;;17.90;99983.00;;;;4998647;28;20237;-68
2022/05/24 10:25:44;;;;;;;3.23;1.37;;;;;18.40;99989.00;;;;5021657;28;20245;-68
2022/05/24 10:28:40;;;;;;;1.17;1.07;;;;;18.40;99987.00;;;;5000863;28;20271;-69
2022/05/24 10:31:39;;;;;;;1.83;1.33;;;;;18.60;99995.00;;;;4998397;28;20225;-69
2022/05/24 10:41:06;;;;;;;1.80;1.40;;;;;18.80;99992.00;;;;5004107;28;20300;-69
2022/05/24 10:44:01;;;;;;;2.07;1.47;;;;;18.60;100004.00;;;;5007711;28;20284;-68
2022/05/24 10:46:55;;;;;;;2.87;1.60;;;;;18.30;100009.00;;;;5009778;28;20250;-68
2022/05/24 10:49:48;;;;;;;2.60;1.77;;;;;18.10;100011.00;;;;5029522;28;20233;-69
2022/05/24 10:52:41;;;;;;;4.60;1.43;;;;;18.00;99988.00;;;;5021568;28;20287;-69
2022/05/24 10:55:31;;;;;;;1.80;1.37;;;;;18.30;100003.00;;;;5015181;28;20229;-69
2022/05/24 10:58:19;;;;;;;3.90;1.60;;;;;18.80;100005.00;;;;5024652;28;20497;-69
2022/05/24 11:01:09;;;;;;;1.73;1.40;;;;;19.20;99995.00;;;;5021873;28;20387;-69
2022/05/24 11:04:02;;;;;;;3.80;1.50;;;;;19.50;99990.00;;;;5026620;28;20588;-71
2022/05/24 11:06:55;;;;;;;2.17;1.50;;;;;19.70;99982.00;;;;5021104;28;20233;-69
2022/05/24 11:09:50;;;;;;;1.67;1.37;;;;;20.00;100000.00;;;;5029643;28;20837;-70
2022/05/24 11:12:43;;;;;;;2.90;1.20;;;;;20.40;99999.00;;;;5024543;28;20233;-71
2022/05/24 11:15:34;;;;;;;1.20;1.00;;;;;21.10;99999.00;;;;5030166;28;20251;-71
2022/05/24 11:18:23;;;;;;;1.40;1.00;;;;;21.40;100005.00;;;;5013752;28;20295;-68
2022/05/24 11:21:16;;;;;;;2.40;1.10;;;;;21.50;100005.00;;;;5028832;28;20237;-71
2022/05/24 11:24:08;;;;;;;3.20;1.30;;;;;21.20;100001.00;;;;5017705;28;20233;-71
2022/05/24 11:26:57;;;;;;;3.70;1.00;;;;;21.40;100011.00;;;;5020456;28;20262;-72
2022/05/24 11:29:48;;;;;;;1.00;1.00;;;;;21.50;100007.00;;;;5028795;28;20253;-71
2022/05/24 11:32:39;;;;;;;1.73;1.00;;;;;21.60;100015.00;;;;5029032;28;20613;-72
2022/05/24 11:35:29;;;;;;;2.00;1.10;;;;;22.00;100024.00;;;;5022340;28;20229;-73
2022/05/24 11:38:20;;;;;;;1.70;1.00;;;;;21.90;100039.00;;;;5020530;28;20312;-71
2022/05/24 11:41:20;;;;;;;1.43;1.00;;;;;22.10;100027.00;;;;5028295;28;20245;-73
2022/05/24 11:44:27;;;;;;;2.90;1.20;;;;;22.30;100007.00;;;;5028330;28;20229;-73
2022/05/24 11:47:46;;;;;;;1.50;1.10;;;;;22.20;100030.00;;;;5020118;28;20253;-70
2022/05/24 11:50:40;;;;;;;2.17;1.30;;;;;22.60;100030.00;;;;5010380;28;20247;-70
2022/05/24 11:53:39;;;;;;;1.97;1.10;;;;;22.80;100015.00;;;;5000284;28;20233;-71
2022/05/24 11:56:26;;;;;;;2.13;1.53;;;;;22.30;100034.00;;;;5001815;28;20235;-71
2022/05/24 11:59:47;;;;;;;5.17;1.80;;;;;22.10;100030.00;;;;5016441;28;20318;-71
2022/05/24 12:09:24;;;;;;;2.17;1.97;;;;;21.30;100046.00;;;;5000610;28;20358;-71
2022/05/24 12:12:18;;;;;;;2.60;2.00;;;;;21.10;100062.00;;;;5024244;28;20363;-69
2022/05/24 12:15:15;;;;;;;3.43;1.63;;;;;20.60;100059.00;;;;5025689;28;20249;-71
2022/05/24 12:18:15;;;;;;;3.30;1.70;;;;;20.00;100060.00;;;;5019169;28;20247;-71
2022/05/24 12:21:02;;;;;;;8.27;4.97;;;;;19.60;100077.00;;;;5015090;28;20245;-71
2022/05/24 12:23:48;;;;;;;2.13;1.80;;;;;19.40;100079.00;;;;5007391;28;20238;-71
2022/05/24 12:27:07;;;;;;;4.13;1.70;;;;;19.30;100076.00;;;;5007466;28;20719;-71
2022/05/24 12:29:58;;;;;;;2.23;1.80;;;;;20.30;100082.00;;;;5017216;28;20245;-69
2022/05/24 12:32:44;;;;;;;3.67;2.20;;;;;20.80;100083.00;;;;5027239;28;20275;-70
2022/05/24 12:35:32;;;;;;;2.17;1.80;;;;;21.30;100083.00;;;;5027581;28;20844;-71
2022/05/24 12:38:21;;;;;;;3.03;1.93;;;;;21.30;100086.00;;;;5015807;28;20229;-70
2022/05/24 12:41:15;;;;;;;1.87;1.63;;;;;21.70;100087.00;;;;5026144;28;20764;-71
2022/05/24 12:44:04;;;;;;;3.17;1.60;;;;;22.40;100086.00;;;;5027572;28;20309;-71
2022/05/24 12:47:17;;;;;;;1.53;1.40;;;;;22.70;100084.00;;;;5005579;28;20237;-71
2022/05/24 12:50:04;;;;;;;3.00;1.40;;;;;22.30;100077.00;;;;5027492;28;20746;-71
2022/05/24 12:52:58;;;;;;;3.30;1.30;;;;;21.50;100088.00;;;;5027418;28;20230;-70
2022/05/24 12:55:56;;;;;;;3.57;1.43;;;;;21.00;100095.00;;;;5022388;28;20949;-72
2022/05/24 12:58:45;;;;;;;1.40;1.30;;;;;20.60;100100.00;;;;5023028;28;20610;-73
2022/05/24 13:01:32;;;;;;;1.73;1.50;;;;;20.50;100103.00;;;;5027396;28;20800;-70
2022/05/24 13:04:24;;;;;;;2.00;1.43;;;;;20.20;100098.00;;;;5026889;28;20230;-74
2022/05/24 13:07:19;;;;;;;1.50;1.40;;;;;20.20;100104.00;;;;5026877;28;20700;-74
2022/05/24 13:10:23;;;;;;;2.80;1.67;;;;;20.20;100112.00;;;;5024734;28;20345;-74
2022/05/24 13:13:13;;;;;;;1.60;1.50;;;;;20.90;100110.00;;;;5026672;28;20710;-72
2022/05/24 13:16:01;;;;;;;3.30;2.40;;;;;21.80;100107.00;;;;5020018;28;20265;-72
2022/05/24 13:18:49;;;;;;;2.03;1.87;;;;;22.00;100118.00;;;;5027371;28;20238;-72
2022/05/24 13:21:36;;;;;;;3.30;1.97;;;;;22.50;100116.00;;;;5027278;28;20237;-72
2022/05/24 13:24:22;;;;;;;2.23;2.00;;;;;22.00;100112.00;;;;5019912;28;20222;-72
2022/05/24 13:27:09;;;;;;;2.87;1.80;;;;;21.80;100117.00;;;;5020606;28;20258;-71
2022/05/24 13:36:23;;;;;;;2.20;1.60;;;;;20.20;100124.00;;;;5000565;28;20812;-73
2022/05/24 13:39:23;;;;;;;1.87;1.67;;;;;20.00;100138.00;;;;5025573;28;20237;-72
2022/05/24 13:42:11;;;;;;;2.83;1.70;;;;;19.60;100149.00;;;;5015203;28;20234;-74
2022/05/24 13:45:19;;;;;;;2.27;1.43;;;;;19.70;100151.00;;;;5022436;28;20280;-72
2022/05/24 13:48:28;;;;;;;1.53;1.10;;;;;19.60;100168.00;;;;5016405;28;20248;-75
2022/05/24 13:51:20;;;;;;;2.07;1.30;;;;;19.50;100170.00;;;;5015761;28;20597;-74
2022/05/24 13:54:37;;;;;;;4.97;1.20;;;;;19.70;100170.00;;;;5025585;28;20233;-71
2022/05/24 13:57:27;;;;;;;1.40;1.30;;;;;19.80;100175.00;;;;5019326;28;20244;-73
2022/05/24 14:00:22;;;;;;;1.20;1.10;;;;;20.10;100164.00;;;;5025914;28;20607;-74
2022/05/24 14:03:26;;;;;;;1.53;0.97;;;;;20.20;100168.00;;;;5026015;28;20241;-73
2022/05/24 14:06:14;;;;;;;1.70;0.90;;;;;20.70;100167.00;;;;5025669;28;20224;-72
2022/05/24 14:09:05;;;;;;;1.20;1.10;;;;;21.10;100182.00;;;;5024667;28;20249;-71
2022/05/24 14:11:56;;;;;;;1.03;0.90;;;;;21.70;100178.00;;;;5025704;28;20375;-74
2022/05/24 14:14:48;;;;;;;2.57;0.93;;;;;21.60;100180.00;;;;5025908;28;20289;-73
2022/05/24 14:17:35;;;;;;;1.90;1.10;;;;;21.30;100181.00;;;;5002976;28;20741;-71
2022/05/24 14:20:21;;;;;;;5.13;1.77;;;;;21.10;100179.00;;;;4998913;28;20252;-71
2022/05/24 14:23:08;;;;;;;1.93;1.20;;;;;20.60;100174.00;;;;5017882;28;20242;-73
2022/05/24 14:25:54;;;;;;;1.70;1.23;;;;;20.40;100195.00;;;;5005958;28;20750;-72
2022/05/24 14:28:42;;;;;;;1.73;1.10;;;;;20.00;100200.00;;;;5019239;28;20237;-73
2022/05/24 14:31:28;;;;;;;1.30;1.20;;;;;19.90;100204.00;;;;5025725;28;20280;-70
2022/05/24 14:34:16;;;;;;;1.57;1.10;;;;;19.60;100225.00;;;;5008885;28;20228;-72
2022/05/24 14:37:03;;;;;;;1.97;1.20;;;;;19.60;100217.00;;;;5025612;28;20323;-73
2022/05/24 14:39:50;;;;;;;2.50;1.30;;;;;19.80;100230.00;;;;5017546;28;20287;-72
2022/05/24 14:42:42;;;;;;;1.10;1.07;;;;;19.50;100231.00;;;;5006659;28;20246;-74
2022/05/24 14:45:30;;;;;;;2.70;1.40;;;;;19.50;100232.00;;;;5014280;28;20353;-73
2022/05/24 14:48:17;;;;;;;1.30;1.20;;;;;19.70;100240.00;;;;5014114;28;20281;-70
2022/05/24 14:51:05;;;;;;;1.47;1.33;;;;;19.70;100258.00;;;;5024198;28;20232;-70